Ryoei Maru — JL6703 — position and weather

sailwx.info

Track history (hours):
 
Tides and Currents Weather Stations Pressure Air Temp Water Temp Dewpoint Dewpoint Depression Visibility Wind Speed Wind Dir Waves Ship Positions

Ryoei Maru

Last reported at 2016-Aug-30 12:07 UTC. Time now 2016-Aug-30 13:14 UTC.
Position N 33°57' E 134°59'.

Length 95 m; draft 5 m.

Type: Cargo ship. MMSI: 431501749.

Date/timePositionNaut miles runAvg speedWind from/ knotsBaromVisibWave heightAir tempDewpointWater temp
2016-Aug-30 12:07N 33°57' E 134°59'712.6
2016-Aug-30 11:33N 34°04' E 134°59'1312.6
2016-Aug-30 10:32N 34°17' E 134°58'1111.2
2016-Aug-30 09:33N 34°27' E 135°05'1212.5
2016-Aug-30 08:33N 34°34' E 135°17'7 7.1
2016-Aug-30 07:30N 34°37' E 135°26'0 0.0
2016-Aug-30 06:30N 34°37' E 135°26'0 0.0
2016-Aug-30 05:33N 34°37' E 135°26'0 0.0
2016-Aug-30 04:33N 34°37' E 135°26'0 0.0
2016-Aug-30 03:33N 34°37' E 135°26'0 0.0
2016-Aug-30 02:21N 34°37' E 135°26'0 0.1
2016-Aug-30 01:33N 34°37' E 135°26'0 0.0
2016-Aug-30 00:33N 34°37' E 135°26'0 0.0
2016-Aug-29 23:33N 34°37' E 135°26'0 0.0
2016-Aug-29 22:33N 34°37' E 135°26'0 0.0
2016-Aug-29 21:33N 34°37' E 135°26'0 0.0
2016-Aug-29 20:27N 34°37' E 135°26'0 0.1
2016-Aug-29 19:33N 34°37' E 135°26'0 0.0
2016-Aug-29 18:33N 34°37' E 135°26'0 0.0
2016-Aug-29 17:33N 34°37' E 135°26'0 0.0
2016-Aug-29 16:33N 34°37' E 135°26'0 0.0
2016-Aug-29 15:33N 34°37' E 135°26'0 0.0
2016-Aug-29 14:33N 34°37' E 135°26'0 0.0
2016-Aug-29 13:33N 34°37' E 135°26'0 0.0
2016-Aug-29 12:33N 34°37' E 135°26'0 0.0
2016-Aug-29 11:33N 34°37' E 135°26'0 0.0
2016-Aug-29 10:33N 34°37' E 135°26'0 0.0
2016-Aug-29 09:33N 34°37' E 135°26'0 0.0
2016-Aug-29 08:33N 34°37' E 135°26'0 0.0
2016-Aug-29 07:28N 34°37' E 135°26'0 0.0
2016-Aug-29 05:25N 34°37' E 135°26'0 0.0
2016-Aug-29 04:25N 34°37' E 135°26'0 0.0
2016-Aug-29 01:10N 34°37' E 135°26'0 0.1
2016-Aug-29 00:28N 34°37' E 135°26'0 0.0
2016-Aug-28 23:28N 34°37' E 135°26'0 0.0
2016-Aug-28 22:22N 34°37' E 135°26'3 4.2
2016-Aug-28 21:33N 34°37' E 135°21'1212.1
2016-Aug-28 20:34N 34°29' E 135°11'1312.7
2016-Aug-28 19:33N 34°19' E 135°01'1312.3
2016-Aug-28 18:32N 34°06' E 135°00'23210.6
2016-Aug-27 20:32N 34°42' E 139°38'2712.3
2016-Aug-27 18:22N 34°55' E 140°06'2812.3
2016-Aug-27 16:07N 35°13' E 140°32'  
2016-Aug-24 21:32N 36°47' E 141°04'4313.8
2016-Aug-24 18:27N 36°05' E 140°59'1314.2
2016-Aug-24 17:33N 35°52' E 140°58'1313.0
2016-Aug-24 16:32N 35°39' E 140°55'1312.7
2016-Aug-24 15:32N 35°29' E 140°46'1312.7
2016-Aug-24 14:31N 35°18' E 140°38'1414.1
2016-Aug-24 13:30N 35°06' E 140°28'1414.3
2016-Aug-24 12:33N 34°59' E 140°14'1514.6
2016-Aug-24 11:31N 34°52' E 139°58'1414.0
2016-Aug-24 10:33N 34°45' E 139°43'23911.4
2016-Aug-23 13:31N 33°58' E 134°60'1313.2
2016-Aug-23 12:33N 34°10' E 134°59'1313.1
2016-Aug-23 11:33N 34°23' E 135°01'1414.1
2016-Aug-23 10:33N 34°32' E 135°14'1110.6
2016-Aug-23 09:33N 34°37' E 135°26'0 0.0
2016-Aug-23 08:32N 34°37' E 135°26'0 0.0
2016-Aug-23 07:32N 34°37' E 135°26'0 0.0
2016-Aug-23 06:32N 34°37' E 135°26'0 0.0
2016-Aug-23 04:32N 34°37' E 135°26'0 0.0
2016-Aug-23 03:14N 34°37' E 135°26'0 0.0
2016-Aug-23 02:20N 34°37' E 135°26'0 0.1
2016-Aug-23 01:32N 34°37' E 135°26'0 0.0
2016-Aug-22 22:21N 34°37' E 135°26'5 6.2
2016-Aug-22 21:32N 34°36' E 135°20'1 1.2
2016-Aug-22 20:25N 34°35' E 135°18'0 0.0
2016-Aug-22 19:07N 34°35' E 135°18'0 0.0
2016-Aug-22 18:31N 34°35' E 135°18'0 0.0
2016-Aug-22 17:31N 34°35' E 135°18'0 0.0
2016-Aug-22 16:31N 34°35' E 135°18'0 0.0
2016-Aug-22 15:19N 34°35' E 135°18'0 0.0
2016-Aug-22 14:25N 34°35' E 135°18'5 5.8
2016-Aug-22 13:34N 34°31' E 135°14'1412.4
2016-Aug-22 12:27N 34°21' E 135°03'1112.1
2016-Aug-22 11:31N 34°10' E 134°60'179 9.8
2016-Aug-21 17:08N 34°33' E 138°35'6712.0
2016-Aug-21 11:32N 35°09' E 139°44'1212.0
2016-Aug-21 10:33N 35°21' E 139°42'1211.9
2016-Aug-21 09:33N 35°31' E 139°51'7 6.3
2016-Aug-21 08:25N 35°37' E 139°47'0 0.0
2016-Aug-21 06:19N 35°37' E 139°47'0 0.0
2016-Aug-21 05:25N 35°37' E 139°47'0 0.0
2016-Aug-21 04:31N 35°37' E 139°47'0 0.0
2016-Aug-21 03:28N 35°37' E 139°47'0 0.0
2016-Aug-21 02:28N 35°37' E 139°47'0 0.0
2016-Aug-21 01:16N 35°37' E 139°47'0 0.0
2016-Aug-21 00:28N 35°37' E 139°47'1 1.4
2016-Aug-20 23:33N 35°37' E 139°49'1110.6
2016-Aug-20 22:33N 35°26' E 139°49'1110.6
2016-Aug-20 21:33N 35°16' E 139°47'1212.4
2016-Aug-20 20:33N 35°04' E 139°45'17 8.1
2016-Aug-20 18:25N 34°54' E 140°02'1112.8
2016-Aug-20 17:31N 35°00' E 140°14'1312.3
2016-Aug-20 16:27N 35°08' E 140°27'  
Track history (hours):
 
Tides and Currents Weather Stations Pressure Air Temp Water Temp Dewpoint Dewpoint Depression Visibility Wind Speed Wind Dir Waves Ship Positions

Ryoei Maru

Last reported at 2016-Aug-30 12:07 UTC. Time now 2016-Aug-30 13:14 UTC.
Position N 33°57' E 134°59'.

Length 95 m; draft 5 m.

Type: Cargo ship. MMSI: 431501749.

Date/timePositionNaut miles runAvg speedWind from/ knotsBaromVisibWave heightAir tempDewpointWater temp
2016-Aug-30 12:07N 33°57' E 134°59'712.6
2016-Aug-30 11:33N 34°04' E 134°59'1312.6
2016-Aug-30 10:32N 34°17' E 134°58'1111.2
2016-Aug-30 09:33N 34°27' E 135°05'1212.5
2016-Aug-30 08:33N 34°34' E 135°17'7 7.1
2016-Aug-30 07:30N 34°37' E 135°26'0 0.0
2016-Aug-30 06:30N 34°37' E 135°26'0 0.0
2016-Aug-30 05:33N 34°37' E 135°26'0 0.0
2016-Aug-30 04:33N 34°37' E 135°26'0 0.0
2016-Aug-30 03:33N 34°37' E 135°26'0 0.0
2016-Aug-30 02:21N 34°37' E 135°26'0 0.1
2016-Aug-30 01:33N 34°37' E 135°26'0 0.0
2016-Aug-30 00:33N 34°37' E 135°26'0 0.0
2016-Aug-29 23:33N 34°37' E 135°26'0 0.0
2016-Aug-29 22:33N 34°37' E 135°26'0 0.0
2016-Aug-29 21:33N 34°37' E 135°26'0 0.0
2016-Aug-29 20:27N 34°37' E 135°26'0 0.1
2016-Aug-29 19:33N 34°37' E 135°26'0 0.0
2016-Aug-29 18:33N 34°37' E 135°26'0 0.0
2016-Aug-29 17:33N 34°37' E 135°26'0 0.0
2016-Aug-29 16:33N 34°37' E 135°26'0 0.0
2016-Aug-29 15:33N 34°37' E 135°26'0 0.0
2016-Aug-29 14:33N 34°37' E 135°26'0 0.0
2016-Aug-29 13:33N 34°37' E 135°26'0 0.0
2016-Aug-29 12:33N 34°37' E 135°26'0 0.0
2016-Aug-29 11:33N 34°37' E 135°26'0 0.0
2016-Aug-29 10:33N 34°37' E 135°26'0 0.0
2016-Aug-29 09:33N 34°37' E 135°26'0 0.0
2016-Aug-29 08:33N 34°37' E 135°26'0 0.0
2016-Aug-29 07:28N 34°37' E 135°26'0 0.0
2016-Aug-29 05:25N 34°37' E 135°26'0 0.0
2016-Aug-29 04:25N 34°37' E 135°26'0 0.0
2016-Aug-29 01:10N 34°37' E 135°26'0 0.1
2016-Aug-29 00:28N 34°37' E 135°26'0 0.0
2016-Aug-28 23:28N 34°37' E 135°26'0 0.0
2016-Aug-28 22:22N 34°37' E 135°26'3 4.2
2016-Aug-28 21:33N 34°37' E 135°21'1212.1
2016-Aug-28 20:34N 34°29' E 135°11'1312.7
2016-Aug-28 19:33N 34°19' E 135°01'1312.3
2016-Aug-28 18:32N 34°06' E 135°00'23210.6
2016-Aug-27 20:32N 34°42' E 139°38'2712.3
2016-Aug-27 18:22N 34°55' E 140°06'2812.3
2016-Aug-27 16:07N 35°13' E 140°32'  
2016-Aug-24 21:32N 36°47' E 141°04'4313.8
2016-Aug-24 18:27N 36°05' E 140°59'1314.2
2016-Aug-24 17:33N 35°52' E 140°58'1313.0
2016-Aug-24 16:32N 35°39' E 140°55'1312.7
2016-Aug-24 15:32N 35°29' E 140°46'1312.7
2016-Aug-24 14:31N 35°18' E 140°38'1414.1
2016-Aug-24 13:30N 35°06' E 140°28'1414.3
2016-Aug-24 12:33N 34°59' E 140°14'1514.6
2016-Aug-24 11:31N 34°52' E 139°58'1414.0
2016-Aug-24 10:33N 34°45' E 139°43'23911.4
2016-Aug-23 13:31N 33°58' E 134°60'1313.2
2016-Aug-23 12:33N 34°10' E 134°59'1313.1
2016-Aug-23 11:33N 34°23' E 135°01'1414.1
2016-Aug-23 10:33N 34°32' E 135°14'1110.6
2016-Aug-23 09:33N 34°37' E 135°26'0 0.0
2016-Aug-23 08:32N 34°37' E 135°26'0 0.0
2016-Aug-23 07:32N 34°37' E 135°26'0 0.0
2016-Aug-23 06:32N 34°37' E 135°26'0 0.0
2016-Aug-23 04:32N 34°37' E 135°26'0 0.0
2016-Aug-23 03:14N 34°37' E 135°26'0 0.0
2016-Aug-23 02:20N 34°37' E 135°26'0 0.1
2016-Aug-23 01:32N 34°37' E 135°26'0 0.0
2016-Aug-22 22:21N 34°37' E 135°26'5 6.2
2016-Aug-22 21:32N 34°36' E 135°20'1 1.2
2016-Aug-22 20:25N 34°35' E 135°18'0 0.0
2016-Aug-22 19:07N 34°35' E 135°18'0 0.0
2016-Aug-22 18:31N 34°35' E 135°18'0 0.0
2016-Aug-22 17:31N 34°35' E 135°18'0 0.0
2016-Aug-22 16:31N 34°35' E 135°18'0 0.0
2016-Aug-22 15:19N 34°35' E 135°18'0 0.0
2016-Aug-22 14:25N 34°35' E 135°18'5 5.8
2016-Aug-22 13:34N 34°31' E 135°14'1412.4
2016-Aug-22 12:27N 34°21' E 135°03'1112.1
2016-Aug-22 11:31N 34°10' E 134°60'179 9.8
2016-Aug-21 17:08N 34°33' E 138°35'6712.0
2016-Aug-21 11:32N 35°09' E 139°44'1212.0
2016-Aug-21 10:33N 35°21' E 139°42'1211.9
2016-Aug-21 09:33N 35°31' E 139°51'7 6.3
2016-Aug-21 08:25N 35°37' E 139°47'0 0.0
2016-Aug-21 06:19N 35°37' E 139°47'0 0.0
2016-Aug-21 05:25N 35°37' E 139°47'0 0.0
2016-Aug-21 04:31N 35°37' E 139°47'0 0.0
2016-Aug-21 03:28N 35°37' E 139°47'0 0.0
2016-Aug-21 02:28N 35°37' E 139°47'0 0.0
2016-Aug-21 01:16N 35°37' E 139°47'0 0.0
2016-Aug-21 00:28N 35°37' E 139°47'1 1.4
2016-Aug-20 23:33N 35°37' E 139°49'1110.6
2016-Aug-20 22:33N 35°26' E 139°49'1110.6
2016-Aug-20 21:33N 35°16' E 139°47'1212.4
2016-Aug-20 20:33N 35°04' E 139°45'17 8.1
2016-Aug-20 18:25N 34°54' E 140°02'1112.8
2016-Aug-20 17:31N 35°00' E 140°14'1312.3
2016-Aug-20 16:27N 35°08' E 140°27'  

Dump ship's entire track history